createdAt,value
2023-03-15T00:00:37.067Z,58.60
2023-03-15T00:04:37.251Z,59.38
2023-03-15T00:08:37.477Z,58.63
2023-03-15T00:12:37.671Z,57.70
2023-03-15T00:16:37.796Z,56.78
2023-03-15T00:20:37.860Z,58.93
2023-03-15T00:24:37.998Z,61.17
2023-03-15T00:28:38.066Z,61.73
2023-03-15T00:32:38.172Z,60.61
2023-03-15T00:36:38.224Z,59.59
2023-03-15T00:40:38.335Z,59.85
2023-03-15T00:44:38.457Z,59.90
2023-03-15T00:48:38.521Z,59.38
2023-03-15T00:52:38.664Z,58.44
2023-03-15T00:56:38.768Z,58.09
2023-03-15T01:00:38.858Z,57.43
2023-03-15T01:04:39.047Z,57.31
2023-03-15T01:08:39.175Z,57.12
2023-03-15T01:12:39.274Z,56.64
2023-03-15T01:16:39.568Z,56.30
2023-03-15T01:20:39.585Z,57.16
2023-03-15T01:24:39.691Z,57.54
2023-03-15T01:28:39.853Z,57.60
2023-03-15T01:32:40.096Z,57.47
2023-03-15T01:36:40.163Z,57.62
2023-03-15T01:40:40.369Z,58.76
2023-03-15T01:44:40.551Z,58.57
2023-03-15T01:48:40.716Z,58.32
2023-03-15T01:52:40.912Z,61.38
2023-03-15T01:56:41.049Z,62.48
2023-03-15T02:00:41.237Z,63.21
2023-03-15T02:04:41.290Z,63.49
2023-03-15T02:08:41.428Z,62.66
2023-03-15T02:12:41.574Z,62.04
2023-03-15T02:16:41.719Z,61.36
2023-03-15T02:20:41.909Z,61.95
2023-03-15T02:24:41.992Z,62.62
2023-03-15T02:28:42.162Z,62.89
2023-03-15T02:32:42.287Z,62.18
2023-03-15T02:36:42.394Z,62.21
2023-03-15T02:40:42.462Z,61.71
2023-03-15T02:44:42.625Z,66.79
2023-03-15T02:48:42.712Z,67.13
2023-03-15T02:52:42.882Z,66.37
2023-03-15T02:56:42.969Z,68.28
2023-03-15T03:00:43.109Z,67.47
2023-03-15T03:04:43.198Z,66.79
2023-03-15T03:08:43.330Z,64.78
2023-03-15T03:12:43.444Z,65.53
2023-03-15T03:16:43.673Z,63.99
2023-03-15T03:20:43.786Z,66.66
2023-03-15T03:24:44.004Z,64.93
2023-03-15T03:28:44.126Z,65.82
2023-03-15T03:32:44.290Z,64.29
2023-03-15T03:36:44.430Z,64.99
2023-03-15T03:40:44.497Z,63.37
2023-03-15T03:44:44.622Z,63.77
2023-03-15T03:48:44.900Z,64.38
2023-03-15T03:52:44.952Z,63.42
2023-03-15T03:56:45.060Z,64.10
2023-03-15T04:00:45.161Z,66.16
2023-03-15T04:04:45.455Z,63.30
2023-03-15T04:08:45.492Z,61.29
2023-03-15T04:12:45.693Z,59.22
2023-03-15T04:16:45.749Z,63.47
2023-03-15T04:20:45.903Z,60.31
2023-03-15T04:24:46.007Z,61.66
2023-03-15T04:28:46.079Z,64.19
2023-03-15T04:32:46.289Z,69.61
2023-03-15T04:36:46.399Z,70.53
2023-03-15T04:40:46.552Z,68.01
2023-03-15T04:44:46.698Z,67.91
2023-03-15T04:48:46.863Z,65.31
2023-03-15T04:52:46.990Z,65.91
2023-03-15T04:56:47.047Z,63.55
2023-03-15T05:00:47.249Z,64.36
2023-03-15T05:04:47.289Z,63.59
2023-03-15T05:08:47.462Z,63.02
2023-03-15T05:12:47.601Z,61.36
2023-03-15T05:16:47.709Z,59.78
2023-03-15T05:20:47.873Z,60.39
2023-03-15T05:24:48.332Z,62.43
2023-03-15T05:28:48.157Z,53.10
2023-03-15T05:32:48.325Z,59.74
2023-03-15T05:36:48.440Z,61.54
2023-03-15T05:40:48.610Z,60.80
2023-03-15T05:44:48.662Z,65.75
2023-03-15T05:48:48.891Z,62.97
2023-03-15T05:52:48.921Z,61.82
2023-03-15T05:56:49.022Z,60.26
2023-03-15T06:00:49.172Z,60.27
2023-03-15T06:04:49.329Z,60.61
2023-03-15T06:08:49.495Z,61.45
2023-03-15T06:12:49.647Z,59.86
2023-03-15T06:16:49.801Z,55.11
2023-03-15T06:20:49.875Z,56.75
2023-03-15T06:24:49.960Z,57.83
2023-03-15T06:28:50.056Z,57.05
2023-03-15T06:32:50.204Z,56.94
2023-03-15T06:36:50.274Z,58.45
2023-03-15T06:40:50.419Z,56.14
2023-03-15T06:44:51.243Z,56.91
2023-03-15T06:48:50.683Z,57.85
2023-03-15T06:52:50.826Z,55.81
2023-03-15T06:56:50.859Z,57.15
2023-03-15T07:00:50.999Z,55.70
2023-03-15T07:04:51.161Z,57.95
2023-03-15T07:08:51.297Z,55.55
2023-03-15T07:12:51.360Z,57.30
2023-03-15T07:16:51.487Z,56.50
2023-03-15T07:20:51.709Z,57.75
2023-03-15T07:24:51.796Z,59.34
2023-03-15T07:28:51.923Z,60.55
2023-03-15T07:32:52.163Z,59.30
2023-03-15T07:36:52.190Z,59.33
2023-03-15T07:40:52.267Z,58.07
2023-03-15T07:44:52.434Z,57.77
2023-03-15T07:48:52.627Z,56.54
2023-03-15T07:52:52.737Z,57.12
2023-03-15T07:56:52.830Z,54.98
2023-03-15T08:00:52.943Z,54.80
2023-03-15T08:04:53.098Z,51.42
2023-03-15T08:08:53.218Z,52.21
2023-03-15T08:12:53.364Z,48.15
2023-03-15T08:16:53.519Z,49.84
2023-03-15T08:20:53.672Z,48.05
2023-03-15T08:24:53.741Z,50.50
2023-03-15T08:28:53.858Z,49.06
2023-03-15T08:32:54.013Z,47.94
2023-03-15T08:36:54.223Z,49.12
2023-03-15T08:40:54.329Z,47.12
2023-03-15T08:44:54.441Z,46.33
2023-03-15T08:48:54.597Z,45.99
2023-03-15T08:52:54.727Z,44.48
2023-03-15T08:56:54.809Z,43.53
2023-03-15T09:00:54.946Z,40.14
2023-03-15T09:04:55.103Z,38.55
2023-03-15T09:08:55.187Z,37.01
2023-03-15T09:12:55.306Z,32.00
2023-03-15T09:16:55.447Z,35.17
2023-03-15T09:20:57.500Z,34.63
2023-03-15T09:24:55.625Z,32.07
2023-03-15T09:28:55.833Z,28.50
2023-03-15T09:37:28.826Z,28.06
2023-03-15T09:41:15.225Z,25.67
2023-03-15T09:45:15.246Z,25.96
2023-03-15T09:49:15.160Z,26.68
2023-03-15T09:53:15.153Z,26.32
2023-03-15T09:57:15.269Z,24.05
2023-03-15T10:01:15.409Z,23.57
2023-03-15T10:05:15.514Z,21.35
2023-03-15T10:09:15.604Z,22.45
2023-03-15T10:13:15.794Z,21.46
2023-03-15T10:17:16.002Z,20.10
2023-03-15T10:21:16.080Z,21.34
2023-03-15T10:25:16.207Z,23.84
2023-03-15T10:29:16.340Z,21.46
2023-03-15T10:33:16.975Z,21.46
2023-03-15T10:37:16.660Z,21.46
2023-03-15T10:41:23.463Z,22.49
2023-03-15T10:45:17.744Z,22.46
2023-03-15T10:49:16.691Z,23.18
2023-03-15T10:53:16.649Z,22.96
2023-03-15T10:57:16.722Z,23.25
2023-03-15T11:01:16.865Z,23.19
2023-03-15T11:05:16.899Z,22.61
2023-03-15T11:09:17.052Z,21.86
2023-03-15T11:13:17.193Z,23.17
2023-03-15T11:17:17.281Z,18.04
2023-03-15T11:21:17.347Z,19.89
2023-03-15T11:25:17.440Z,19.50
2023-03-15T11:29:17.656Z,18.36
2023-03-15T11:33:17.786Z,16.87
2023-03-15T11:37:18.539Z,16.33
2023-03-15T11:41:17.969Z,17.98
2023-03-15T11:45:18.164Z,17.82
2023-03-15T11:49:18.236Z,16.95
2023-03-15T11:53:18.354Z,15.02
2023-03-15T11:57:18.414Z,16.39
2023-03-15T12:01:18.562Z,14.62
2023-03-15T12:05:18.718Z,15.37
2023-03-15T12:09:18.834Z,14.96
2023-03-15T12:13:18.959Z,14.16
2023-03-15T12:17:19.091Z,16.41
2023-03-15T12:21:19.180Z,16.24
2023-03-15T12:25:19.332Z,17.30
2023-03-15T12:29:19.430Z,16.48
2023-03-15T12:33:19.589Z,17.88
2023-03-15T12:37:19.664Z,15.23
2023-03-15T12:41:19.793Z,16.46
2023-03-15T12:45:19.996Z,16.79
2023-03-15T12:49:20.088Z,15.89
2023-03-15T12:53:20.153Z,16.20
2023-03-15T12:57:20.256Z,14.88
2023-03-15T13:01:20.446Z,14.57
2023-03-15T13:05:20.554Z,16.31
2023-03-15T13:09:20.674Z,15.63
2023-03-15T13:13:20.803Z,15.78
2023-03-15T13:17:20.988Z,15.48
2023-03-15T13:21:21.114Z,15.55
2023-03-15T13:25:21.200Z,14.60
2023-03-15T13:29:21.329Z,16.84
2023-03-15T13:33:21.447Z,16.63
2023-03-15T13:37:21.560Z,17.47
2023-03-15T13:41:21.650Z,17.93
2023-03-15T13:45:21.777Z,16.23
2023-03-15T13:49:21.857Z,16.59
2023-03-15T13:53:22.057Z,16.08
2023-03-15T13:57:22.099Z,15.60
2023-03-15T14:01:22.314Z,15.50
2023-03-15T14:05:22.624Z,16.30
2023-03-15T14:09:22.458Z,17.43
2023-03-15T14:13:22.613Z,17.00
2023-03-15T14:17:22.680Z,18.39
2023-03-15T14:21:22.790Z,18.69
2023-03-15T14:25:23.056Z,18.09
2023-03-15T14:29:23.085Z,19.83
2023-03-15T14:33:23.151Z,18.64
2023-03-15T14:37:23.264Z,18.15
2023-03-15T14:41:23.409Z,18.87
2023-03-15T14:45:23.718Z,18.88
2023-03-15T14:49:23.661Z,20.46
2023-03-15T14:53:23.768Z,20.86
2023-03-15T14:57:23.867Z,21.32
2023-03-15T15:01:24.120Z,21.79
2023-03-15T15:05:24.191Z,21.54
2023-03-15T15:09:24.354Z,22.51
2023-03-15T15:13:24.456Z,21.86
2023-03-15T15:17:24.579Z,22.27
2023-03-15T15:21:24.669Z,22.36
2023-03-15T15:25:24.787Z,22.69
2023-03-15T15:29:24.894Z,21.74
2023-03-15T15:33:24.969Z,21.99
2023-03-15T15:37:25.068Z,20.97
2023-03-15T15:41:25.263Z,20.79
2023-03-15T15:45:25.294Z,20.35
2023-03-15T15:49:25.383Z,20.21
2023-03-15T15:53:25.496Z,20.50
2023-03-15T15:57:25.610Z,21.22
2023-03-15T16:01:25.807Z,22.10
2023-03-15T16:05:25.859Z,22.93
2023-03-15T16:09:25.986Z,21.30
2023-03-15T16:13:26.092Z,22.59
2023-03-15T16:17:26.200Z,22.84
2023-03-15T16:21:26.327Z,23.56
2023-03-15T16:25:26.457Z,25.29
2023-03-15T16:29:26.639Z,25.51
2023-03-15T16:33:26.801Z,25.76
2023-03-15T16:37:26.894Z,26.92
2023-03-15T16:41:26.979Z,27.48
2023-03-15T16:45:27.128Z,28.09
2023-03-15T16:49:27.274Z,28.25
2023-03-15T16:53:27.451Z,28.15
2023-03-15T16:57:27.479Z,28.00
2023-03-15T17:01:27.730Z,29.68
2023-03-15T17:05:27.745Z,30.59
2023-03-15T17:09:27.844Z,31.36
2023-03-15T17:13:27.990Z,31.79
2023-03-15T17:17:28.134Z,32.14
2023-03-15T17:21:28.236Z,31.17
2023-03-15T17:25:28.362Z,31.71
2023-03-15T17:29:28.453Z,32.30
2023-03-15T17:33:28.587Z,32.68
2023-03-15T17:37:28.693Z,32.64
2023-03-15T17:41:28.775Z,31.17
2023-03-15T17:45:28.924Z,31.21
2023-03-15T17:49:29.165Z,31.03
2023-03-15T17:53:29.109Z,30.13
2023-03-15T17:57:29.165Z,29.80
2023-03-15T18:01:29.355Z,31.22
2023-03-15T18:05:29.406Z,32.00
2023-03-15T18:09:29.526Z,31.92
2023-03-15T18:13:29.774Z,31.52
2023-03-15T18:17:29.869Z,31.93
2023-03-15T18:21:29.968Z,31.15
2023-03-15T18:25:30.093Z,30.64
2023-03-15T18:29:30.233Z,30.95
2023-03-15T18:33:30.411Z,32.01
2023-03-15T18:37:30.486Z,32.69
2023-03-15T18:41:30.609Z,33.88
2023-03-15T18:45:30.757Z,33.62
2023-03-15T18:49:30.912Z,34.41
2023-03-15T18:53:31.625Z,35.75
2023-03-15T18:57:31.173Z,35.94
2023-03-15T19:01:31.343Z,36.74
2023-03-15T19:05:31.427Z,36.09
2023-03-15T19:09:31.568Z,35.76
2023-03-15T19:13:31.600Z,35.42
2023-03-15T19:17:31.653Z,35.34
2023-03-15T19:21:31.827Z,35.52
2023-03-15T19:25:31.957Z,34.95
2023-03-15T19:29:32.081Z,35.57
2023-03-15T19:33:32.234Z,35.91
2023-03-15T19:37:32.372Z,36.03
2023-03-15T19:41:32.569Z,36.93
2023-03-15T19:45:32.749Z,37.38
2023-03-15T19:49:32.950Z,37.50
2023-03-15T19:53:33.011Z,38.05
2023-03-15T19:57:33.177Z,38.44
2023-03-15T20:01:33.273Z,39.18
2023-03-15T20:05:33.387Z,38.84
2023-03-15T20:09:33.529Z,39.43
2023-03-15T20:13:33.633Z,39.57
2023-03-15T20:17:33.767Z,40.20
2023-03-15T20:21:33.949Z,40.66
2023-03-15T20:25:34.038Z,40.33
2023-03-15T20:29:34.151Z,40.46
2023-03-15T20:33:34.274Z,39.96
2023-03-15T20:37:34.369Z,40.48
2023-03-15T20:41:34.494Z,40.32
2023-03-15T20:45:34.597Z,39.66
2023-03-15T20:49:34.733Z,39.30
2023-03-15T20:53:34.820Z,39.54
2023-03-15T20:57:34.873Z,38.84
2023-03-15T21:01:34.948Z,38.82
2023-03-15T21:05:35.097Z,39.22
2023-03-15T21:09:35.263Z,40.13
2023-03-15T21:13:35.433Z,40.04
2023-03-15T21:17:35.543Z,41.23
2023-03-15T21:21:35.637Z,42.57
2023-03-15T21:25:35.760Z,42.16
2023-03-15T21:29:35.887Z,42.10
2023-03-15T21:33:36.062Z,42.02
2023-03-15T21:37:36.265Z,42.39
2023-03-15T21:41:36.395Z,41.71
2023-03-15T21:45:36.599Z,41.21
2023-03-15T21:49:36.720Z,41.93
2023-03-15T21:53:36.858Z,42.43
2023-03-15T21:57:36.942Z,42.12
2023-03-15T22:01:37.157Z,43.37
2023-03-15T22:05:37.234Z,43.04
2023-03-15T22:09:37.288Z,43.21
2023-03-15T22:13:37.426Z,43.39
2023-03-15T22:17:37.605Z,43.01
2023-03-15T22:21:37.766Z,43.82
2023-03-15T22:25:37.878Z,44.17
2023-03-15T22:29:37.924Z,44.42
2023-03-15T22:33:38.019Z,43.05
2023-03-15T22:37:38.113Z,44.74
2023-03-15T22:41:38.165Z,45.94
2023-03-15T22:45:38.292Z,46.38
2023-03-15T22:49:38.406Z,45.61
2023-03-15T22:53:38.590Z,45.70
2023-03-15T22:57:38.730Z,45.21
2023-03-15T23:01:38.888Z,45.29
2023-03-15T23:05:38.976Z,46.62
2023-03-15T23:09:39.137Z,47.15
2023-03-15T23:13:39.236Z,46.60
2023-03-15T23:17:39.452Z,46.17
2023-03-15T23:21:39.512Z,46.95
2023-03-15T23:25:39.640Z,47.46
2023-03-15T23:29:53.319Z,48.07
2023-03-15T23:33:40.684Z,48.32
2023-03-15T23:37:39.664Z,48.23
2023-03-15T23:41:39.607Z,49.19
2023-03-15T23:45:39.655Z,49.93
2023-03-15T23:49:39.826Z,49.72
2023-03-15T23:53:39.951Z,50.54
2023-03-15T23:57:40.041Z,52.06
